Time;durP1;ratioP1;P1;durP2;ratioP2;P2;SDS_P1;SDS_P2;PMS_P1;PMS_P2;Temp;Humidity;BMP_temperature;BMP_pressure;BME280_temperature;BME280_humidity;BME280_pressure;Samples;Min_cycle;Max_cycle;Signal;HPM_P1;HPM_P2
2022/03/25 00:00:25;;;;;;;38.47;30.42;;;17.90;77.80;;;;;;5031863;28;20100;-67
2022/03/25 00:02:51;;;;;;;34.90;28.48;;;17.80;77.80;;;;;;5032094;28;20045;-64
2022/03/25 00:05:18;;;;;;;35.55;29.13;;;;;;;;;;5025812;28;20088;-63
2022/03/25 00:07:43;;;;;;;37.58;30.63;;;17.90;77.90;;;;;;5024078;28;20045;-64
2022/03/25 00:10:09;;;;;;;35.85;29.17;;;17.70;77.80;;;;;;5032840;28;20056;-62
2022/03/25 00:12:35;;;;;;;35.70;27.08;;;17.80;77.90;;;;;;5032450;28;20069;-62
2022/03/25 00:15:01;;;;;;;35.25;28.15;;;17.90;77.80;;;;;;5031567;28;20065;-63
2022/03/25 00:17:27;;;;;;;33.17;27.55;;;17.90;78.10;;;;;;5025555;28;20041;-62
2022/03/25 00:19:53;;;;;;;35.30;27.58;;;17.50;77.60;;;;;;5027295;28;20042;-63
2022/03/25 00:22:18;;;;;;;31.20;26.20;;;17.80;74.90;;;;;;5032185;28;20053;-62
2022/03/25 00:24:44;;;;;;;31.08;25.80;;;17.70;77.70;;;;;;5032620;28;20065;-63
2022/03/25 00:27:10;;;;;;;30.58;25.98;;;17.60;77.80;;;;;;5032274;28;20080;-66
2022/03/25 00:29:36;;;;;;;30.42;25.85;;;17.60;77.80;;;;;;5032060;28;20041;-67
2022/03/25 00:32:03;;;;;;;30.05;24.20;;;;;;;;;;5032562;28;20033;-69
2022/03/25 00:34:29;;;;;;;30.83;26.23;;;17.70;77.70;;;;;;5032871;28;20401;-62
2022/03/25 00:36:55;;;;;;;29.85;25.27;;;17.50;77.80;;;;;;5032636;28;20155;-65
2022/03/25 00:39:21;;;;;;;30.75;25.55;;;;;;;;;;5025219;28;20539;-62
2022/03/25 00:41:47;;;;;;;30.58;26.00;;;17.50;77.70;;;;;;5028265;28;20073;-62
2022/03/25 00:44:13;;;;;;;29.05;25.25;;;;;;;;;;5033008;28;20087;-62
2022/03/25 00:46:40;;;;;;;29.45;24.45;;;17.60;77.70;;;;;;5032658;28;20045;-64
2022/03/25 00:49:05;;;;;;;30.20;25.38;;;17.70;78.00;;;;;;5031705;28;20125;-63
2022/03/25 00:51:31;;;;;;;29.77;26.42;;;;;;;;;;5034556;28;20267;-67
2022/03/25 00:53:57;;;;;;;30.20;25.20;;;17.60;77.80;;;;;;5031505;28;20476;-63
2022/03/25 00:56:24;;;;;;;27.42;24.40;;;17.70;75.40;;;;;;5032596;28;20203;-67
2022/03/25 00:58:50;;;;;;;29.30;24.88;;;;;;;;;;5034810;28;20069;-67
2022/03/25 01:01:16;;;;;;;30.15;25.45;;;17.60;77.70;;;;;;5035094;28;20056;-65
2022/03/25 01:03:43;;;;;;;31.00;25.65;;;17.90;77.80;;;;;;5036149;28;20116;-65
2022/03/25 01:06:09;;;;;;;29.45;24.88;;;17.70;77.90;;;;;;5035985;28;20103;-67
2022/03/25 01:08:35;;;;;;;29.23;25.13;;;17.50;74.80;;;;;;5036100;28;20050;-66
2022/03/25 01:11:04;;;;;;;27.67;24.48;;;17.70;77.70;;;;;;5035239;28;20136;-66
2022/03/25 01:13:33;;;;;;;28.92;24.48;;;17.70;74.90;;;;;;5027101;28;20049;-63
2022/03/25 01:16:06;;;;;;;28.77;24.90;;;17.70;77.70;;;;;;5016216;28;20058;-66
2022/03/25 01:18:31;;;;;;;28.23;24.90;;;17.50;78.60;;;;;;5027909;28;20047;-70
2022/03/25 01:20:58;;;;;;;28.75;24.75;;;17.80;77.80;;;;;;5035588;28;20480;-67
2022/03/25 01:23:24;;;;;;;28.15;24.15;;;17.40;77.60;;;;;;5033416;28;20042;-67
2022/03/25 01:25:50;;;;;;;25.95;22.90;;;17.70;77.70;;;;;;5035802;28;20079;-65
2022/03/25 01:28:16;;;;;;;26.05;23.02;;;17.50;77.60;;;;;;5035090;28;20042;-65
2022/03/25 01:30:42;;;;;;;30.27;25.58;;;17.50;77.60;;;;;;5029778;28;20498;-62
2022/03/25 01:33:09;;;;;;;27.85;24.00;;;17.70;77.70;;;;;;5030169;28;20484;-66
2022/03/25 01:35:35;;;;;;;27.58;23.27;;;17.50;77.80;;;;;;5035235;28;20064;-67
2022/03/25 01:38:02;;;;;;;27.60;22.98;;;;;;;;;;5035308;28;20122;-66
2022/03/25 01:40:28;;;;;;;27.15;23.90;;;;;;;;;;5035242;28;20033;-63
2022/03/25 01:42:53;;;;;;;26.25;23.02;;;17.60;77.90;;;;;;5035214;28;20084;-61
2022/03/25 01:45:34;;;;;;;27.23;23.77;;;17.40;77.70;;;;;;5034908;28;20131;-65
2022/03/25 01:48:01;;;;;;;25.42;22.42;;;17.30;74.90;;;;;;5033658;28;20403;-65
2022/03/25 01:50:26;;;;;;;27.42;23.15;;;17.80;78.00;;;;;;5030374;28;20049;-67
2022/03/25 01:52:52;;;;;;;25.77;22.90;;;17.50;77.70;;;;;;5003011;28;20042;-65
2022/03/25 01:55:21;;;;;;;26.92;23.58;;;17.30;77.50;;;;;;5034221;28;20268;-62
2022/03/25 01:57:47;;;;;;;25.75;22.70;;;17.60;77.60;;;;;;5016816;28;20050;-62
2022/03/25 02:00:14;;;;;;;26.25;23.23;;;17.70;77.70;;;;;;5000203;28;20396;-61
2022/03/25 02:02:40;;;;;;;26.88;23.80;;;17.30;77.50;;;;;;5034218;28;20050;-63
2022/03/25 02:05:06;;;;;;;25.10;21.70;;;17.30;77.60;;;;;;5021715;28;20038;-67
2022/03/25 02:07:32;;;;;;;24.92;22.23;;;17.50;76.60;;;;;;5023400;28;20048;-66
2022/03/25 02:09:59;;;;;;;25.67;22.85;;;17.60;77.60;;;;;;5034003;28;20049;-70
2022/03/25 02:12:25;;;;;;;26.13;23.33;;;17.50;74.80;;;;;;5034355;28;20045;-62
2022/03/25 02:14:51;;;;;;;25.83;23.05;;;17.30;77.50;;;;;;5033981;28;20499;-63
2022/03/25 02:17:17;;;;;;;25.60;22.80;;;17.30;77.50;;;;;;5023652;28;20105;-66
2022/03/25 02:19:42;;;;;;;26.33;23.08;;;17.60;77.60;;;;;;5025215;28;20060;-64
2022/03/25 02:22:08;;;;;;;26.58;22.85;;;17.50;77.50;;;;;;5033311;28;20042;-64
2022/03/25 02:24:34;;;;;;;26.13;22.30;;;17.40;74.60;;;;;;5034128;28;20041;-63
2022/03/25 02:27:00;;;;;;;25.05;22.30;;;17.20;77.30;;;;;;5034113;28;20073;-63
2022/03/25 02:29:26;;;;;;;24.25;21.73;;;17.50;77.30;;;;;;5034160;28;20046;-61
2022/03/25 02:31:52;;;;;;;24.95;22.05;;;17.40;77.20;;;;;;5033167;28;20494;-66
2022/03/25 02:34:18;;;;;;;24.63;20.90;;;17.50;77.30;;;;;;5022628;28;20049;-63
2022/03/25 02:36:45;;;;;;;23.50;21.00;;;17.30;77.20;;;;;;5020266;28;20037;-62
2022/03/25 02:39:11;;;;;;;24.55;21.90;;;17.40;77.10;;;;;;5031125;28;20434;-61
2022/03/25 02:41:37;;;;;;;22.95;20.55;;;17.50;74.50;;;;;;5007107;28;20042;-63
2022/03/25 02:44:03;;;;;;;23.48;20.98;;;17.00;76.90;;;;;;5010642;28;20051;-65
2022/03/25 02:46:29;;;;;;;22.90;20.50;;;17.20;76.90;;;;;;5034066;28;20068;-63
2022/03/25 02:48:55;;;;;;;24.75;22.13;;;;;;;;;;5028995;28;20546;-61
2022/03/25 02:51:21;;;;;;;22.52;20.17;;;17.10;76.80;;;;;;5017499;28;20036;-61
2022/03/25 02:53:46;;;;;;;23.17;20.77;;;17.10;76.80;;;;;;5033332;28;20503;-65
2022/03/25 02:56:12;;;;;;;22.83;20.42;;;17.30;76.80;;;;;;5029299;28;20046;-65
2022/03/25 02:58:38;;;;;;;21.08;18.88;;;17.30;76.70;;;;;;5033365;28;20041;-65
2022/03/25 03:01:06;;;;;;;21.85;18.77;;;17.20;73.80;;;;;;5025043;28;20180;-65
2022/03/25 03:03:32;;;;;;;20.50;18.38;;;17.10;76.60;;;;;;5025079;28;20049;-65
2022/03/25 03:05:59;;;;;;;20.40;18.20;;;17.40;76.70;;;;;;5033303;28;20100;-65
2022/03/25 03:08:25;;;;;;;19.63;17.65;;;17.20;73.60;;;;;;5032279;28;20119;-65
2022/03/25 03:10:51;;;;;;;19.00;17.00;;;17.20;76.50;;;;;;5033457;28;20476;-65
2022/03/25 03:13:17;;;;;;;19.05;17.10;;;17.10;76.40;;;;;;5022108;28;20080;-65
2022/03/25 03:15:43;;;;;;;19.70;17.35;;;17.40;76.60;;;;;;5025184;28;20088;-65
2022/03/25 03:18:09;;;;;;;18.10;16.25;;;17.10;76.40;;;;;;5033480;28;20458;-65
2022/03/25 03:20:35;;;;;;;18.33;16.42;;;17.00;73.40;;;;;;5032645;28;20045;-65
2022/03/25 03:23:01;;;;;;;18.50;16.60;;;17.10;76.30;;;;;;5033716;28;20125;-65
2022/03/25 03:25:26;;;;;;;18.05;16.23;;;17.20;73.30;;;;;;5032241;28;20041;-65
2022/03/25 03:27:53;;;;;;;17.98;16.08;;;;;;;;;;5015310;28;20049;-65
2022/03/25 03:30:19;;;;;;;17.73;16.02;;;17.00;76.10;;;;;;5018843;28;20053;-66
2022/03/25 03:32:45;;;;;;;17.20;15.43;;;17.00;76.10;;;;;;5033361;28;20490;-64
2022/03/25 03:35:11;;;;;;;17.23;15.48;;;17.00;76.00;;;;;;5015263;28;20049;-65
2022/03/25 03:37:41;;;;;;;18.15;16.30;;;;;;;;;;5033186;28;20038;-65
2022/03/25 03:40:08;;;;;;;16.70;15.00;;;17.20;76.10;;;;;;5033090;28;20045;-65
2022/03/25 03:42:34;;;;;;;17.48;15.77;;;16.80;75.80;;;;;;5032062;28;20111;-65
2022/03/25 03:44:59;;;;;;;17.67;15.98;;;17.00;76.10;;;;;;5032133;28;20049;-65
2022/03/25 03:47:25;;;;;;;16.40;14.80;;;17.00;75.90;;;;;;5027816;28;20052;-65
2022/03/25 03:49:51;;;;;;;16.98;15.18;;;17.00;75.90;;;;;;5028453;28;20045;-65
2022/03/25 03:52:17;;;;;;;17.20;15.50;;;16.90;75.80;;;;;;5026535;28;20033;-65
2022/03/25 03:54:43;;;;;;;17.17;15.48;;;;;;;;;;5014737;28;20045;-65
2022/03/25 03:57:08;;;;;;;17.60;15.80;;;17.00;72.90;;;;;;5024021;28;20041;-65
2022/03/25 03:59:35;;;;;;;17.92;16.13;;;16.90;75.60;;;;;;5032324;28;20129;-65
2022/03/25 04:02:00;;;;;;;17.08;15.27;;;16.80;75.70;;;;;;5032557;28;20042;-65
2022/03/25 04:04:26;;;;;;;17.75;15.95;;;17.00;75.60;;;;;;5018309;28;20050;-65
2022/03/25 04:06:52;;;;;;;18.40;16.48;;;;;;;;;;5032841;28;20034;-65
2022/03/25 04:09:18;;;;;;;18.25;16.35;;;16.80;75.50;;;;;;5032787;28;20045;-65
2022/03/25 04:11:44;;;;;;;19.38;16.65;;;16.60;75.50;;;;;;5033241;28;20544;-65
2022/03/25 04:14:09;;;;;;;21.67;17.65;;;16.80;75.70;;;;;;5030882;28;20054;-65
2022/03/25 04:16:35;;;;;;;19.08;17.08;;;16.90;75.60;;;;;;5025862;28;20131;-65
2022/03/25 04:19:01;;;;;;;19.60;17.20;;;16.90;75.60;;;;;;5019477;28;20049;-65
2022/03/25 04:21:27;;;;;;;20.65;17.48;;;16.50;72.60;;;;;;5015297;28;20041;-65
2022/03/25 04:23:53;;;;;;;19.60;16.77;;;;;;;;;;5031774;28;20037;-65
2022/03/25 04:26:19;;;;;;;22.30;17.60;;;16.90;75.70;;;;;;5036564;28;20096;-65
2022/03/25 04:28:44;;;;;;;22.20;16.52;;;16.80;72.90;;;;;;5036254;28;20084;-65
2022/03/25 04:31:10;;;;;;;19.77;17.13;;;16.90;75.60;;;;;;5036381;28;20095;-65
2022/03/25 04:33:37;;;;;;;20.52;18.00;;;16.60;75.40;;;;;;5036354;28;20475;-65
2022/03/25 04:36:03;;;;;;;21.58;18.10;;;16.70;75.50;;;;;;5036768;28;20037;-65
2022/03/25 04:38:29;;;;;;;22.73;18.67;;;;;;;;;;5031057;28;20524;-65
2022/03/25 04:40:55;;;;;;;22.00;17.92;;;;;;;;;;5035982;28;20046;-66
2022/03/25 04:43:21;;;;;;;21.88;18.30;;;16.70;75.30;;;;;;5035538;28;20483;-66
2022/03/25 04:45:47;;;;;;;22.17;18.08;;;16.80;75.60;;;;;;5036261;28;20052;-65
2022/03/25 04:48:14;;;;;;;23.67;18.35;;;;;;;;;;5036185;28;20041;-67
2022/03/25 04:50:40;;;;;;;25.17;19.02;;;16.60;75.50;;;;;;5035968;28;20049;-66
2022/03/25 04:53:06;;;;;;;23.52;18.70;;;16.90;75.70;;;;;;5015041;28;20046;-65
2022/03/25 04:55:32;;;;;;;25.58;20.45;;;16.70;75.50;;;;;;5032945;28;20041;-65
2022/03/25 04:57:58;;;;;;;24.23;19.83;;;16.80;72.70;;;;;;5017842;28;20487;-65
2022/03/25 05:00:23;;;;;;;26.25;20.83;;;16.60;75.50;;;;;;4984950;28;20084;-65
2022/03/25 05:02:49;;;;;;;26.25;20.10;;;16.70;75.60;;;;;;5028733;28;20050;-65
2022/03/25 05:05:15;;;;;;;28.25;21.40;;;16.90;72.80;;;;;;5017769;28;20073;-66
2022/03/25 05:07:42;;;;;;;27.95;21.00;;;16.70;75.50;;;;;;5035922;28;20443;-65
2022/03/25 05:10:08;;;;;;;26.27;19.83;;;16.70;72.70;;;;;;5001107;28;20088;-65
2022/03/25 05:12:34;;;;;;;27.52;21.23;;;16.60;75.20;;;;;;4997076;28;20104;-65
2022/03/25 05:15:00;;;;;;;27.67;20.77;;;16.60;75.60;;;;;;5012065;28;20057;-62
2022/03/25 05:17:26;;;;;;;22.25;17.92;;;16.70;74.20;;;;;;5015726;28;20570;-64
2022/03/25 05:19:52;;;;;;;23.70;18.92;;;16.70;75.70;;;;;;5015894;28;20518;-65
2022/03/25 05:22:18;;;;;;;23.05;18.00;;;;;;;;;;5015639;28;20041;-66
2022/03/25 05:24:44;;;;;;;26.10;19.73;;;16.80;75.70;;;;;;5014936;28;20048;-65
2022/03/25 05:27:10;;;;;;;23.35;17.73;;;16.80;75.80;;;;;;5015549;28;20045;-65
2022/03/25 05:29:36;;;;;;;22.85;17.50;;;16.80;75.60;;;;;;5014926;28;20389;-66
2022/03/25 05:32:01;;;;;;;23.77;17.52;;;17.20;75.80;;;;;;5014900;28;20042;-65
2022/03/25 05:34:27;;;;;;;23.60;17.42;;;16.80;75.40;;;;;;5012381;28;20042;-62
2022/03/25 05:36:53;;;;;;;21.67;17.27;;;16.70;75.40;;;;;;5014834;28;20128;-62
2022/03/25 05:39:20;;;;;;;20.30;16.00;;;16.70;75.40;;;;;;5013705;28;20056;-62
2022/03/25 05:41:46;;;;;;;19.42;15.20;;;;;;;;;;5015269;28;20400;-74
2022/03/25 05:44:12;;;;;;;19.60;15.68;;;16.90;75.40;;;;;;5014412;28;20488;-65
2022/03/25 05:46:38;;;;;;;18.55;14.48;;;16.70;75.20;;;;;;5014378;28;20052;-66
2022/03/25 05:49:04;;;;;;;17.38;14.15;;;17.00;75.30;;;;;;5014989;28;20155;-65
2022/03/25 05:51:30;;;;;;;17.50;14.32;;;17.00;73.20;;;;;;5014909;28;20446;-67
2022/03/25 05:53:56;;;;;;;14.98;13.02;;;16.70;72.20;;;;;;4996513;28;20050;-65
2022/03/25 05:56:22;;;;;;;16.08;13.38;;;;;;;;;;5014408;28;20042;-65
2022/03/25 05:58:49;;;;;;;15.80;13.70;;;;;;;;;;5014919;28;20081;-66
2022/03/25 06:01:15;;;;;;;17.95;13.98;;;;;;;;;;5014550;28;20087;-66
2022/03/25 06:03:41;;;;;;;18.30;14.40;;;16.60;74.90;;;;;;5014398;28;20042;-66
2022/03/25 06:06:07;;;;;;;19.38;15.32;;;17.30;75.30;;;;;;5013687;28;20056;-65
2022/03/25 06:08:32;;;;;;;19.35;15.07;;;16.80;74.90;;;;;;4994818;28;20042;-67
2022/03/25 06:10:59;;;;;;;21.08;16.50;;;17.00;75.20;;;;;;5014856;28;20432;-65
2022/03/25 06:13:26;;;;;;;19.42;15.23;;;17.10;71.30;;;;;;5019144;28;20096;-67
2022/03/25 06:15:52;;;;;;;22.27;16.67;;;17.10;75.00;;;;;;5032571;28;20499;-66
2022/03/25 06:18:18;;;;;;;23.40;17.05;;;17.20;72.30;;;;;;5034351;28;20045;-66
2022/03/25 06:20:44;;;;;;;18.95;14.70;;;17.20;75.20;;;;;;5009237;28;20043;-67
2022/03/25 06:23:09;;;;;;;19.17;15.10;;;17.30;72.50;;;;;;5033609;28;20489;-68
2022/03/25 06:25:35;;;;;;;19.42;15.35;;;17.40;75.10;;;;;;5033207;28;20061;-65
2022/03/25 06:28:02;;;;;;;20.42;15.77;;;17.00;71.70;;;;;;5034470;28;20087;-65
2022/03/25 06:30:34;;;;;;;20.38;16.77;;;17.30;74.90;;;;;;5034113;28;20049;-67
2022/03/25 06:33:01;;;;;;;22.87;16.17;;;17.50;75.00;;;;;;5034024;28;20183;-66
2022/03/25 06:35:26;;;;;;;19.88;15.95;;;17.40;74.90;;;;;;4999399;28;20475;-65
2022/03/25 06:37:53;;;;;;;19.15;14.85;;;17.70;75.00;;;;;;5032335;28;20038;-66
2022/03/25 06:40:19;;;;;;;21.30;16.30;;;;;;;;;;5033759;28;20049;-65
2022/03/25 06:42:45;;;;;;;20.50;15.50;;;18.10;75.00;;;;;;5025762;28;20131;-65
2022/03/25 06:45:12;;;;;;;21.60;15.57;;;17.70;74.60;;;;;;5021867;28;20077;-66
2022/03/25 06:47:38;;;;;;;20.92;16.08;;;17.80;74.60;;;;;;4993932;28;20088;-66
2022/03/25 06:50:05;;;;;;;20.08;15.77;;;18.00;74.60;;;;;;5015848;28;20130;-67
2022/03/25 06:52:31;;;;;;;21.40;15.38;;;18.10;74.40;;;;;;5009021;28;20041;-67
2022/03/25 06:54:57;;;;;;;21.92;17.13;;;18.20;71.70;;;;;;5009004;28;20097;-66
2022/03/25 06:57:23;;;;;;;21.40;16.08;;;18.30;74.40;;;;;;5010666;28;20072;-66
2022/03/25 06:59:49;;;;;;;21.88;17.02;;;18.40;74.30;;;;;;5010807;28;20392;-65
2022/03/25 07:02:15;;;;;;;22.23;16.55;;;18.50;74.20;;;;;;5004719;28;20041;-67
2022/03/25 07:04:41;;;;;;;23.35;16.88;;;18.50;74.10;;;;;;5012519;28;20053;-68
2022/03/25 07:07:07;;;;;;;24.70;17.30;;;18.70;74.10;;;;;;5013517;28;20126;-70
2022/03/25 07:09:35;;;;;;;21.85;16.08;;;18.80;74.00;;;;;;4995780;28;20148;-66
2022/03/25 07:12:01;;;;;;;19.40;15.65;;;18.90;74.00;;;;;;5024735;28;20392;-65
2022/03/25 07:14:27;;;;;;;20.42;15.73;;;18.90;73.80;;;;;;5020868;28;20084;-68
2022/03/25 07:16:53;;;;;;;21.50;16.05;;;;;;;;;;4996347;28;20050;-68
2022/03/25 07:19:19;;;;;;;21.65;16.20;;;19.10;74.00;;;;;;5013869;28;20130;-68
2022/03/25 07:21:45;;;;;;;21.10;17.00;;;19.20;73.90;;;;;;4993880;28;20128;-66
2022/03/25 07:24:13;;;;;;;23.63;17.42;;;19.30;73.90;;;;;;5000207;28;20483;-68
2022/03/25 07:26:39;;;;;;;21.00;16.63;;;19.40;73.70;;;;;;5013575;28;20042;-67
2022/03/25 07:29:05;;;;;;;21.08;16.02;;;;;;;;;;5012728;28;20058;-73
2022/03/25 07:31:32;;;;;;;21.13;16.10;;;19.40;73.60;;;;;;5032226;28;20049;-67
2022/03/25 07:33:58;;;;;;;21.23;15.93;;;19.60;73.60;;;;;;5014666;28;20063;-66
2022/03/25 07:36:24;;;;;;;20.02;14.70;;;;;;;;;;5020586;28;20163;-66
2022/03/25 07:38:50;;;;;;;19.48;14.60;;;19.90;73.50;;;;;;4995348;28;20061;-66
2022/03/25 07:41:16;;;;;;;21.27;15.65;;;19.80;73.30;;;;;;4981280;28;20076;-66
2022/03/25 07:43:42;;;;;;;18.95;14.50;;;20.00;73.30;;;;;;5013928;28;20050;-67
2022/03/25 07:46:08;;;;;;;18.30;14.38;;;20.10;73.30;;;;;;5032445;28;20037;-67
2022/03/25 07:48:34;;;;;;;19.40;14.20;;;20.10;73.20;;;;;;5032438;28;20524;-68
2022/03/25 07:50:59;;;;;;;18.38;14.23;;;20.10;73.10;;;;;;5032722;28;20052;-67
2022/03/25 07:53:25;;;;;;;19.35;14.65;;;20.20;70.50;;;;;;5032376;28;20089;-71
2022/03/25 07:55:51;;;;;;;18.15;14.20;;;20.30;73.00;;;;;;5014583;28;20073;-67
2022/03/25 07:58:19;;;;;;;18.25;13.88;;;20.50;70.30;;;;;;5032259;28;20512;-68
2022/03/25 08:00:48;;;;;;;18.40;13.73;;;20.40;72.90;;;;;;5017622;28;20084;-67
2022/03/25 08:03:14;;;;;;;18.25;13.38;;;20.60;73.00;;;;;;5021835;28;20050;-67
2022/03/25 08:05:40;;;;;;;20.13;13.43;;;20.60;72.80;;;;;;5036321;28;20044;-67
2022/03/25 08:08:06;;;;;;;20.83;14.40;;;20.50;69.80;;;;;;5036348;28;20041;-67
2022/03/25 08:10:32;;;;;;;18.90;13.73;;;20.90;72.80;;;;;;5034938;28;20045;-67
2022/03/25 08:12:58;;;;;;;17.80;13.45;;;20.70;70.10;;;;;;5036491;28;20383;-67
2022/03/25 08:15:25;;;;;;;19.40;13.30;;;20.80;72.50;;;;;;5035763;28;20045;-69
2022/03/25 08:17:55;;;;;;;18.08;13.98;;;20.80;69.30;;;;;;5033625;28;20049;-66
2022/03/25 08:20:25;;;;;;;16.85;12.65;;;20.90;72.50;;;;;;5003909;28;20087;-67
2022/03/25 08:22:51;;;;;;;18.65;12.40;;;21.10;72.40;;;;;;5036290;28;20557;-66
2022/03/25 08:28:01;;;;;;;18.63;13.20;;;21.20;69.70;;;;;;5034595;28;20048;-67
2022/03/25 08:30:31;;;;;;;18.38;13.43;;;21.10;72.30;;;;;;5026677;28;20128;-66
2022/03/25 08:32:57;;;;;;;16.33;12.35;;;21.00;72.20;;;;;;5001681;28;20081;-68
2022/03/25 08:35:27;;;;;;;15.52;12.00;;;21.40;72.40;;;;;;5014879;28;20050;-64
2022/03/25 08:37:54;;;;;;;18.30;11.98;;;;;;;;;;4966659;28;20118;-68
2022/03/25 08:40:21;;;;;;;17.85;12.23;;;21.20;69.00;;;;;;5016308;28;20041;-74
2022/03/25 08:42:47;;;;;;;16.92;11.60;;;21.30;72.20;;;;;;5034611;28;20053;-66
2022/03/25 08:45:15;;;;;;;15.55;11.15;;;21.50;72.20;;;;;;5035833;28;20140;-66
2022/03/25 08:47:41;;;;;;;16.73;11.43;;;21.30;72.00;;;;;;5035985;28;20132;-64
2022/03/25 08:50:09;;;;;;;15.88;11.52;;;21.50;72.10;;;;;;5018386;28;20041;-64
2022/03/25 08:52:36;;;;;;;15.93;12.10;;;21.40;72.00;;;;;;5009097;28;20435;-65
2022/03/25 08:55:03;;;;;;;18.05;12.10;;;21.60;72.00;;;;;;5025121;28;20052;-64
2022/03/25 08:57:29;;;;;;;15.93;12.40;;;;;;;;;;5035245;28;20060;-70
2022/03/25 08:59:54;;;;;;;16.27;12.05;;;21.60;71.90;;;;;;5018080;28;20403;-66
2022/03/25 09:02:21;;;;;;;17.17;12.02;;;21.50;71.90;;;;;;5035767;28;20041;-62
2022/03/25 09:04:47;;;;;;;16.65;12.05;;;21.30;71.60;;;;;;5034947;28;20041;-63
2022/03/25 09:07:12;;;;;;;20.58;12.18;;;21.60;71.70;;;;;;5036025;28;20033;-63
2022/03/25 09:09:38;;;;;;;17.05;12.45;;;21.30;68.30;;;;;;5025405;28;20672;-64
2022/03/25 09:12:04;;;;;;;20.00;13.23;;;21.30;71.50;;;;;;5016115;28;20045;-65
2022/03/25 09:14:30;;;;;;;18.95;12.98;;;21.10;71.30;;;;;;5015307;28;20515;-62
2022/03/25 09:16:56;;;;;;;19.90;13.52;;;21.40;71.40;;;;;;5033497;28;20049;-65
2022/03/25 09:19:22;;;;;;;21.92;13.70;;;21.40;71.40;;;;;;5034701;28;20120;-65
2022/03/25 09:21:47;;;;;;;18.25;13.05;;;21.20;71.10;;;;;;5035412;28;20041;-65
2022/03/25 09:24:13;;;;;;;20.48;14.07;;;21.50;71.30;;;;;;5035289;28;20045;-66
2022/03/25 09:26:39;;;;;;;17.20;13.40;;;;;;;;;;5025735;28;20041;-68
2022/03/25 09:29:05;;;;;;;18.63;14.63;;;21.10;71.00;;;;;;5015430;28;20049;-66
2022/03/25 09:31:31;;;;;;;18.92;13.65;;;21.10;70.90;;;;;;5015407;28;20084;-65
2022/03/25 09:35:08;;;;;;;22.63;14.68;;;21.00;70.80;;;;;;5027205;28;20053;-67
2022/03/25 09:36:42;;;;;;;21.85;13.85;;;21.20;70.90;;;;;;5034696;28;20077;-65
2022/03/25 09:39:08;;;;;;;19.33;13.25;;;21.10;70.90;;;;;;5034245;28;20084;-65
2022/03/25 09:41:34;;;;;;;20.17;13.73;;;21.10;71.10;;;;;;5034856;28;20152;-67
2022/03/25 09:43:59;;;;;;;19.75;13.35;;;21.40;71.40;;;;;;5032649;28;20491;-65
2022/03/25 09:46:25;;;;;;;19.52;12.32;;;21.10;71.30;;;;;;5017035;28;20116;-65
2022/03/25 09:48:51;;;;;;;17.45;12.55;;;21.20;71.40;;;;;;5034781;28;20049;-65
2022/03/25 09:51:17;;;;;;;17.20;12.35;;;21.20;71.50;;;;;;5033661;28;20407;-65
2022/03/25 09:53:43;;;;;;;19.20;13.43;;;20.90;71.20;;;;;;5034637;28;20073;-63
2022/03/25 09:56:09;;;;;;;27.42;13.80;;;21.50;71.60;;;;;;5015815;28;20051;-63
2022/03/25 09:58:34;;;;;;;21.20;13.13;;;21.10;71.50;;;;;;4999320;28;20134;-64
2022/03/25 10:01:00;;;;;;;30.67;13.00;;;21.30;71.60;;;;;;5032710;28;20052;-63
2022/03/25 10:03:36;;;;;;;19.30;12.70;;;21.30;71.80;;;;;;5032431;28;20041;-64
2022/03/25 10:06:04;;;;;;;26.13;11.93;;;;;;;;;;4997075;28;20050;-70
2022/03/25 10:08:33;;;;;;;16.42;11.20;;;21.40;71.90;;;;;;5015042;28;20128;-64
2022/03/25 10:11:17;;;;;;;16.40;10.93;;;21.20;71.90;;;;;;5014938;28;20041;-65
2022/03/25 10:13:43;;;;;;;20.90;11.80;;;21.10;71.80;;;;;;5033787;28;20060;-66
2022/03/25 10:16:30;;;;;;;16.85;11.27;;;21.30;72.10;;;;;;5034227;28;20417;-62
2022/03/25 10:18:57;;;;;;;16.45;10.48;;;21.00;72.00;;;;;;5027953;28;20438;-63
2022/03/25 10:21:27;;;;;;;16.77;10.65;;;21.20;72.20;;;;;;5015161;28;20049;-62
2022/03/25 10:23:53;;;;;;;16.80;10.50;;;21.20;72.30;;;;;;5013416;28;20053;-63
2022/03/25 10:26:19;;;;;;;18.85;12.95;;;21.30;72.30;;;;;;5032507;28;20514;-62
2022/03/25 10:28:47;;;;;;;17.58;10.50;;;21.20;69.20;;;;;;5015489;28;20045;-62
2022/03/25 10:31:15;;;;;;;21.67;11.57;;;21.20;72.20;;;;;;5031734;28;20119;-62
2022/03/25 10:33:59;;;;;;;19.10;11.68;;;21.10;72.10;;;;;;5030899;28;20045;-62
2022/03/25 10:36:25;;;;;;;19.02;11.68;;;21.50;72.40;;;;;;5021248;28;20172;-64
2022/03/25 10:38:57;;;;;;;16.63;10.65;;;21.20;72.30;;;;;;5032721;28;20093;-66
2022/03/25 10:41:24;;;;;;;16.58;11.13;;;21.20;69.30;;;;;;5016277;28;20038;-64
2022/03/25 10:43:52;;;;;;;17.40;10.95;;;21.30;72.50;;;;;;5033524;28;20037;-63
2022/03/25 10:46:27;;;;;;;16.60;11.23;;;21.50;72.40;;;;;;5033692;28;20161;-63
2022/03/25 10:48:55;;;;;;;18.65;13.70;;;21.20;71.90;;;;;;5031615;28;20045;-70
2022/03/25 10:51:21;;;;;;;20.08;14.73;;;21.30;71.60;;;;;;5026494;28;20085;-62
2022/03/25 10:53:48;;;;;;;25.17;15.48;;;21.30;71.50;;;;;;5021480;28;20083;-73
2022/03/25 10:56:14;;;;;;;25.50;15.75;;;21.20;71.50;;;;;;5015782;28;20046;-66
2022/03/25 10:58:50;;;;;;;23.95;15.50;;;21.30;68.40;;;;;;5033606;28;20041;-64
2022/03/25 11:01:16;;;;;;;28.83;17.08;;;21.50;71.40;;;;;;5030848;28;20081;-63
2022/03/25 11:03:42;;;;;;;23.80;16.90;;;21.30;71.40;;;;;;5032037;28;20084;-62
2022/03/25 11:06:08;;;;;;;27.98;18.52;;;21.20;71.20;;;;;;5015595;28;20056;-62
2022/03/25 11:08:35;;;;;;;26.35;18.13;;;21.00;70.90;;;;;;5024788;28;20167;-63
2022/03/25 11:11:01;;;;;;;28.08;19.90;;;;;;;;;;4995244;28;20404;-65
2022/03/25 11:13:27;;;;;;;32.47;20.23;;;;;;;;;;5028585;28;20054;-63
2022/03/25 11:15:55;;;;;;;30.08;21.85;;;21.10;68.50;;;;;;5031092;28;20049;-66
2022/03/25 11:18:21;;;;;;;30.05;20.15;;;21.10;69.30;;;;;;5030902;28;20143;-65
2022/03/25 11:20:47;;;;;;;30.35;20.48;;;21.20;70.80;;;;;;5030706;28;20525;-65
2022/03/25 11:23:20;;;;;;;33.53;21.67;;;21.20;70.70;;;;;;5031047;28;20033;-65
2022/03/25 11:25:49;;;;;;;30.55;20.85;;;21.20;70.80;;;;;;5024324;28;20085;-65
2022/03/25 11:28:19;;;;;;;31.88;19.80;;;21.00;70.30;;;;;;5031569;28;20111;-65
2022/03/25 11:30:45;;;;;;;29.85;19.50;;;21.30;71.10;;;;;;5015544;28;20127;-67
2022/03/25 11:33:11;;;;;;;30.63;17.70;;;21.30;71.40;;;;;;5015096;28;20045;-64
2022/03/25 11:35:39;;;;;;;28.67;17.30;;;21.10;71.00;;;;;;5032558;28;20395;-65
2022/03/25 11:38:11;;;;;;;22.80;16.38;;;21.30;71.50;;;;;;5031488;28;20049;-64
2022/03/25 11:40:45;;;;;;;26.27;15.13;;;21.30;71.60;;;;;;5032635;28;20053;-64
2022/03/25 11:43:27;;;;;;;28.40;16.90;;;21.50;72.10;;;;;;5019508;28;20057;-64
2022/03/25 11:46:06;;;;;;;21.80;14.60;;;21.40;71.70;;;;;;5031222;28;20517;-64
2022/03/25 11:48:39;;;;;;;26.67;15.50;;;21.60;71.90;;;;;;5007285;28;20034;-64
2022/03/25 11:51:24;;;;;;;;;;;21.60;69.60;;;;;;5029688;28;20404;-63
2022/03/25 11:53:50;;;;;;;28.10;15.07;;;21.40;71.90;;;;;;5033039;28;19921;-64
2022/03/25 11:56:15;;;;;;;20.98;14.77;;;21.60;72.00;;;;;;5032561;28;20042;-67
2022/03/25 11:59:00;;;;;;;21.77;13.75;;;21.70;72.10;;;;;;5030386;28;20073;-63
2022/03/25 12:01:26;;;;;;;20.40;13.68;;;21.70;72.00;;;;;;5011849;28;20096;-64
2022/03/25 12:03:59;;;;;;;18.42;13.60;;;21.60;72.20;;;;;;5031296;28;20077;-64
2022/03/25 12:06:26;;;;;;;19.23;13.55;;;21.60;70.50;;;;;;5032517;28;20041;-65
2022/03/25 12:09:00;;;;;;;18.23;12.85;;;21.80;72.30;;;;;;5030374;28;20056;-64
2022/03/25 12:11:55;;;;;;;22.05;12.93;;;21.90;72.30;;;;;;5032675;28;20380;-65
2022/03/25 12:14:31;;;;;;;18.70;13.18;;;21.80;72.30;;;;;;5032340;28;20392;-67
2022/03/25 12:17:01;;;;;;;20.10;14.20;;;21.80;72.40;;;;;;5020861;28;20084;-69
2022/03/25 12:19:26;;;;;;;21.33;14.82;;;21.80;72.30;;;;;;5012878;28;20030;-66
2022/03/25 12:21:52;;;;;;;22.52;16.02;;;21.70;72.20;;;;;;4999920;28;20140;-65
2022/03/25 12:24:19;;;;;;;22.10;16.02;;;21.90;72.20;;;;;;5032761;28;20486;-66
2022/03/25 12:26:44;;;;;;;23.13;14.80;;;21.80;72.30;;;;;;5032481;28;20123;-66
2022/03/25 12:29:10;;;;;;;20.08;14.98;;;21.90;72.20;;;;;;5014491;28;20491;-66
2022/03/25 12:31:36;;;;;;;24.15;16.80;;;21.60;71.80;;;;;;5030973;28;20041;-66
2022/03/25 12:34:02;;;;;;;24.88;18.20;;;21.70;71.90;;;;;;5019939;28;20841;-65
2022/03/25 12:36:41;;;;;;;24.42;17.38;;;21.90;68.80;;;;;;5013121;28;20400;-66
2022/03/25 12:39:14;;;;;;;27.48;18.27;;;21.80;69.60;;;;;;5031998;28;20041;-66